sensor_id;sensor_type;location;lat;lon;timestamp;P1;durP1;ratioP1;P2;durP2;ratioP2
42682;SDS011;28293;50.930;3.464;2023-11-19T00:02:20;25.10;;;5.50;;
42682;SDS011;28293;50.930;3.464;2023-11-19T00:04:45;19.38;;;4.78;;
42682;SDS011;28293;50.930;3.464;2023-11-19T00:07:11;20.88;;;5.18;;
42682;SDS011;28293;50.930;3.464;2023-11-19T00:09:39;25.23;;;5.53;;
42682;SDS011;28293;50.930;3.464;2023-11-19T00:12:05;25.50;;;5.95;;
42682;SDS011;28293;50.930;3.464;2023-11-19T00:14:31;26.92;;;5.53;;
42682;SDS011;28293;50.930;3.464;2023-11-19T00:16:57;28.35;;;6.57;;
42682;SDS011;28293;50.930;3.464;2023-11-19T00:19:29;21.63;;;5.60;;
42682;SDS011;28293;50.930;3.464;2023-11-19T00:21:54;25.05;;;6.18;;
42682;SDS011;28293;50.930;3.464;2023-11-19T00:24:20;30.88;;;6.05;;
42682;SDS011;28293;50.930;3.464;2023-11-19T00:26:45;24.13;;;5.95;;
42682;SDS011;28293;50.930;3.464;2023-11-19T00:29:11;28.48;;;6.65;;
42682;SDS011;28293;50.930;3.464;2023-11-19T00:31:38;25.70;;;6.15;;
42682;SDS011;28293;50.930;3.464;2023-11-19T00:34:05;27.65;;;6.18;;
42682;SDS011;28293;50.930;3.464;2023-11-19T00:36:31;33.45;;;6.80;;
42682;SDS011;28293;50.930;3.464;2023-11-19T00:38:56;29.88;;;6.47;;
42682;SDS011;28293;50.930;3.464;2023-11-19T00:41:23;35.35;;;7.13;;
42682;SDS011;28293;50.930;3.464;2023-11-19T00:43:48;31.52;;;6.93;;
42682;SDS011;28293;50.930;3.464;2023-11-19T00:46:14;30.92;;;7.15;;
42682;SDS011;28293;50.930;3.464;2023-11-19T00:48:40;28.10;;;7.32;;
42682;SDS011;28293;50.930;3.464;2023-11-19T00:51:05;40.58;;;7.47;;
42682;SDS011;28293;50.930;3.464;2023-11-19T00:53:31;26.45;;;6.40;;
42682;SDS011;28293;50.930;3.464;2023-11-19T00:55:58;28.80;;;6.57;;
42682;SDS011;28293;50.930;3.464;2023-11-19T00:58:24;34.63;;;6.78;;
42682;SDS011;28293;50.930;3.464;2023-11-19T01:00:50;31.52;;;6.80;;
42682;SDS011;28293;50.930;3.464;2023-11-19T01:03:15;25.33;;;6.15;;
42682;SDS011;28293;50.930;3.464;2023-11-19T01:05:41;26.90;;;6.25;;
42682;SDS011;28293;50.930;3.464;2023-11-19T01:08:07;28.58;;;6.55;;
42682;SDS011;28293;50.930;3.464;2023-11-19T01:10:33;35.67;;;7.45;;
42682;SDS011;28293;50.930;3.464;2023-11-19T01:12:59;30.75;;;7.40;;
42682;SDS011;28293;50.930;3.464;2023-11-19T01:15:25;23.98;;;6.90;;
42682;SDS011;28293;50.930;3.464;2023-11-19T01:17:51;28.48;;;7.25;;
42682;SDS011;28293;50.930;3.464;2023-11-19T01:20:17;35.33;;;7.68;;
42682;SDS011;28293;50.930;3.464;2023-11-19T01:22:43;34.88;;;7.18;;
42682;SDS011;28293;50.930;3.464;2023-11-19T01:25:08;33.33;;;7.13;;
42682;SDS011;28293;50.930;3.464;2023-11-19T01:27:34;36.30;;;7.25;;
42682;SDS011;28293;50.930;3.464;2023-11-19T01:30:03;29.90;;;7.05;;
42682;SDS011;28293;50.930;3.464;2023-11-19T01:32:30;35.33;;;7.45;;
42682;SDS011;28293;50.930;3.464;2023-11-19T01:34:56;32.00;;;6.50;;
42682;SDS011;28293;50.930;3.464;2023-11-19T01:37:22;30.55;;;6.53;;
42682;SDS011;28293;50.930;3.464;2023-11-19T01:39:48;29.95;;;6.32;;
42682;SDS011;28293;50.930;3.464;2023-11-19T01:42:14;31.17;;;6.45;;
42682;SDS011;28293;50.930;3.464;2023-11-19T01:44:40;27.60;;;6.57;;
42682;SDS011;28293;50.930;3.464;2023-11-19T01:47:06;36.00;;;6.95;;
42682;SDS011;28293;50.930;3.464;2023-11-19T01:49:33;28.83;;;6.40;;
42682;SDS011;28293;50.930;3.464;2023-11-19T01:51:59;39.20;;;7.60;;
42682;SDS011;28293;50.930;3.464;2023-11-19T01:54:25;30.50;;;7.05;;
42682;SDS011;28293;50.930;3.464;2023-11-19T01:56:53;37.72;;;7.50;;
42682;SDS011;28293;50.930;3.464;2023-11-19T01:59:21;32.90;;;6.97;;
42682;SDS011;28293;50.930;3.464;2023-11-19T02:01:51;35.58;;;7.72;;
42682;SDS011;28293;50.930;3.464;2023-11-19T02:04:19;36.05;;;7.03;;
42682;SDS011;28293;50.930;3.464;2023-11-19T02:06:47;36.10;;;7.68;;
42682;SDS011;28293;50.930;3.464;2023-11-19T02:09:15;34.55;;;7.53;;
42682;SDS011;28293;50.930;3.464;2023-11-19T02:11:44;36.03;;;7.38;;
42682;SDS011;28293;50.930;3.464;2023-11-19T02:14:13;32.53;;;7.75;;
42682;SDS011;28293;50.930;3.464;2023-11-19T02:16:39;34.65;;;7.75;;
42682;SDS011;28293;50.930;3.464;2023-11-19T02:19:04;34.97;;;7.70;;
42682;SDS011;28293;50.930;3.464;2023-11-19T02:21:31;32.92;;;6.72;;
42682;SDS011;28293;50.930;3.464;2023-11-19T02:23:57;38.33;;;7.57;;
42682;SDS011;28293;50.930;3.464;2023-11-19T02:28:53;32.72;;;7.28;;
42682;SDS011;28293;50.930;3.464;2023-11-19T02:31:18;42.80;;;8.18;;
42682;SDS011;28293;50.930;3.464;2023-11-19T02:33:45;37.10;;;7.60;;
42682;SDS011;28293;50.930;3.464;2023-11-19T02:36:10;37.17;;;6.90;;
42682;SDS011;28293;50.930;3.464;2023-11-19T02:38:36;38.95;;;8.05;;
42682;SDS011;28293;50.930;3.464;2023-11-19T02:41:03;36.83;;;7.90;;
42682;SDS011;28293;50.930;3.464;2023-11-19T02:43:32;39.85;;;8.48;;
42682;SDS011;28293;50.930;3.464;2023-11-19T02:46:02;40.20;;;7.22;;
42682;SDS011;28293;50.930;3.464;2023-11-19T02:48:31;41.00;;;7.38;;
42682;SDS011;28293;50.930;3.464;2023-11-19T02:50:57;32.33;;;6.75;;
42682;SDS011;28293;50.930;3.464;2023-11-19T02:53:23;36.95;;;7.75;;
42682;SDS011;28293;50.930;3.464;2023-11-19T02:55:50;30.90;;;6.40;;
42682;SDS011;28293;50.930;3.464;2023-11-19T02:58:16;36.47;;;7.35;;
42682;SDS011;28293;50.930;3.464;2023-11-19T03:00:53;32.42;;;7.78;;
42682;SDS011;28293;50.930;3.464;2023-11-19T03:03:34;39.03;;;8.95;;
42682;SDS011;28293;50.930;3.464;2023-11-19T03:06:04;36.05;;;7.53;;
42682;SDS011;28293;50.930;3.464;2023-11-19T03:08:30;37.17;;;8.00;;
42682;SDS011;28293;50.930;3.464;2023-11-19T03:10:56;36.35;;;7.13;;
42682;SDS011;28293;50.930;3.464;2023-11-19T03:13:21;37.55;;;7.80;;
42682;SDS011;28293;50.930;3.464;2023-11-19T03:15:47;33.85;;;7.22;;
42682;SDS011;28293;50.930;3.464;2023-11-19T03:18:13;32.22;;;8.35;;
42682;SDS011;28293;50.930;3.464;2023-11-19T03:20:38;37.42;;;7.78;;
42682;SDS011;28293;50.930;3.464;2023-11-19T03:23:05;36.03;;;7.53;;
42682;SDS011;28293;50.930;3.464;2023-11-19T03:25:31;38.10;;;8.73;;
42682;SDS011;28293;50.930;3.464;2023-11-19T03:28:01;37.80;;;8.05;;
42682;SDS011;28293;50.930;3.464;2023-11-19T03:30:28;40.83;;;7.88;;
42682;SDS011;28293;50.930;3.464;2023-11-19T03:32:57;42.42;;;7.85;;
42682;SDS011;28293;50.930;3.464;2023-11-19T03:35:23;37.80;;;7.88;;
42682;SDS011;28293;50.930;3.464;2023-11-19T03:37:49;35.28;;;8.07;;
42682;SDS011;28293;50.930;3.464;2023-11-19T03:40:16;41.25;;;7.50;;
42682;SDS011;28293;50.930;3.464;2023-11-19T03:42:41;39.75;;;8.35;;
42682;SDS011;28293;50.930;3.464;2023-11-19T03:45:07;38.85;;;7.78;;
42682;SDS011;28293;50.930;3.464;2023-11-19T03:47:37;47.72;;;9.15;;
42682;SDS011;28293;50.930;3.464;2023-11-19T03:50:04;40.55;;;7.85;;
42682;SDS011;28293;50.930;3.464;2023-11-19T03:52:30;36.83;;;7.90;;
42682;SDS011;28293;50.930;3.464;2023-11-19T03:54:56;34.88;;;7.55;;
42682;SDS011;28293;50.930;3.464;2023-11-19T03:57:22;39.00;;;7.63;;
42682;SDS011;28293;50.930;3.464;2023-11-19T03:59:48;47.90;;;8.98;;
42682;SDS011;28293;50.930;3.464;2023-11-19T04:02:14;33.05;;;6.53;;
42682;SDS011;28293;50.930;3.464;2023-11-19T04:04:40;41.47;;;8.52;;
42682;SDS011;28293;50.930;3.464;2023-11-19T04:07:06;34.22;;;8.00;;
42682;SDS011;28293;50.930;3.464;2023-11-19T04:09:32;41.38;;;7.47;;
42682;SDS011;28293;50.930;3.464;2023-11-19T04:12:02;40.88;;;7.57;;
42682;SDS011;28293;50.930;3.464;2023-11-19T04:14:28;38.15;;;8.10;;
42682;SDS011;28293;50.930;3.464;2023-11-19T04:16:54;34.10;;;8.57;;
42682;SDS011;28293;50.930;3.464;2023-11-19T04:19:20;37.05;;;6.90;;
42682;SDS011;28293;50.930;3.464;2023-11-19T04:21:47;38.05;;;7.88;;
42682;SDS011;28293;50.930;3.464;2023-11-19T04:24:12;48.83;;;9.00;;
42682;SDS011;28293;50.930;3.464;2023-11-19T04:26:42;43.78;;;8.60;;
42682;SDS011;28293;50.930;3.464;2023-11-19T04:29:11;37.08;;;7.65;;
42682;SDS011;28293;50.930;3.464;2023-11-19T04:31:38;46.35;;;8.57;;
42682;SDS011;28293;50.930;3.464;2023-11-19T04:34:04;41.38;;;8.43;;
42682;SDS011;28293;50.930;3.464;2023-11-19T04:36:31;41.08;;;7.90;;
42682;SDS011;28293;50.930;3.464;2023-11-19T04:38:58;33.33;;;7.60;;
42682;SDS011;28293;50.930;3.464;2023-11-19T04:41:24;43.10;;;9.55;;
42682;SDS011;28293;50.930;3.464;2023-11-19T04:43:50;34.20;;;7.82;;
42682;SDS011;28293;50.930;3.464;2023-11-19T04:46:16;39.05;;;8.00;;
42682;SDS011;28293;50.930;3.464;2023-11-19T04:48:42;39.28;;;8.52;;
42682;SDS011;28293;50.930;3.464;2023-11-19T04:51:07;38.13;;;7.25;;
42682;SDS011;28293;50.930;3.464;2023-11-19T04:53:36;39.70;;;8.57;;
42682;SDS011;28293;50.930;3.464;2023-11-19T04:56:07;37.35;;;8.10;;
42682;SDS011;28293;50.930;3.464;2023-11-19T04:58:34;43.13;;;8.63;;
42682;SDS011;28293;50.930;3.464;2023-11-19T05:01:01;40.05;;;8.98;;
42682;SDS011;28293;50.930;3.464;2023-11-19T05:03:26;44.92;;;8.45;;
42682;SDS011;28293;50.930;3.464;2023-11-19T05:05:52;37.28;;;7.60;;
42682;SDS011;28293;50.930;3.464;2023-11-19T05:08:18;45.28;;;8.30;;
42682;SDS011;28293;50.930;3.464;2023-11-19T05:10:44;40.72;;;8.20;;
42682;SDS011;28293;50.930;3.464;2023-11-19T05:13:10;46.53;;;8.80;;
42682;SDS011;28293;50.930;3.464;2023-11-19T05:15:35;41.92;;;8.48;;
42682;SDS011;28293;50.930;3.464;2023-11-19T05:18:01;42.53;;;7.95;;
42682;SDS011;28293;50.930;3.464;2023-11-19T05:20:27;42.28;;;8.05;;
42682;SDS011;28293;50.930;3.464;2023-11-19T05:22:52;42.35;;;7.75;;
42682;SDS011;28293;50.930;3.464;2023-11-19T05:25:18;41.72;;;7.72;;
42682;SDS011;28293;50.930;3.464;2023-11-19T05:27:45;34.20;;;7.95;;
42682;SDS011;28293;50.930;3.464;2023-11-19T05:30:11;43.90;;;7.40;;
42682;SDS011;28293;50.930;3.464;2023-11-19T05:32:37;41.10;;;7.82;;
42682;SDS011;28293;50.930;3.464;2023-11-19T05:35:02;44.63;;;8.38;;
42682;SDS011;28293;50.930;3.464;2023-11-19T05:37:28;40.97;;;7.60;;
42682;SDS011;28293;50.930;3.464;2023-11-19T05:39:54;34.08;;;7.55;;
42682;SDS011;28293;50.930;3.464;2023-11-19T05:42:19;44.97;;;9.48;;
42682;SDS011;28293;50.930;3.464;2023-11-19T05:44:45;42.80;;;7.90;;
42682;SDS011;28293;50.930;3.464;2023-11-19T05:47:11;40.60;;;7.78;;
42682;SDS011;28293;50.930;3.464;2023-11-19T05:49:37;41.03;;;7.53;;
42682;SDS011;28293;50.930;3.464;2023-11-19T05:52:03;38.92;;;7.90;;
42682;SDS011;28293;50.930;3.464;2023-11-19T05:54:32;40.85;;;7.53;;
42682;SDS011;28293;50.930;3.464;2023-11-19T05:57:03;37.95;;;8.75;;
42682;SDS011;28293;50.930;3.464;2023-11-19T05:59:34;35.75;;;6.82;;
42682;SDS011;28293;50.930;3.464;2023-11-19T06:02:01;48.03;;;9.55;;
42682;SDS011;28293;50.930;3.464;2023-11-19T06:04:27;37.03;;;7.30;;
42682;SDS011;28293;50.930;3.464;2023-11-19T06:06:53;37.88;;;7.28;;
42682;SDS011;28293;50.930;3.464;2023-11-19T06:09:20;39.15;;;6.93;;
42682;SDS011;28293;50.930;3.464;2023-11-19T06:11:48;35.53;;;7.05;;
42682;SDS011;28293;50.930;3.464;2023-11-19T06:14:15;45.65;;;8.18;;
42682;SDS011;28293;50.930;3.464;2023-11-19T06:16:41;36.95;;;8.23;;
42682;SDS011;28293;50.930;3.464;2023-11-19T06:19:07;40.90;;;7.88;;
42682;SDS011;28293;50.930;3.464;2023-11-19T06:21:32;36.40;;;7.20;;
42682;SDS011;28293;50.930;3.464;2023-11-19T06:23:58;44.88;;;9.43;;
42682;SDS011;28293;50.930;3.464;2023-11-19T06:26:24;45.15;;;8.98;;
42682;SDS011;28293;50.930;3.464;2023-11-19T06:28:49;35.72;;;8.15;;
42682;SDS011;28293;50.930;3.464;2023-11-19T06:31:15;46.03;;;8.45;;
42682;SDS011;28293;50.930;3.464;2023-11-19T06:33:41;42.30;;;9.77;;
42682;SDS011;28293;50.930;3.464;2023-11-19T06:36:07;41.05;;;9.07;;
42682;SDS011;28293;50.930;3.464;2023-11-19T06:38:34;42.60;;;10.38;;
42682;SDS011;28293;50.930;3.464;2023-11-19T06:41:00;43.15;;;8.90;;
42682;SDS011;28293;50.930;3.464;2023-11-19T06:43:26;45.80;;;9.05;;
42682;SDS011;28293;50.930;3.464;2023-11-19T06:45:53;43.95;;;8.48;;
42682;SDS011;28293;50.930;3.464;2023-11-19T06:48:19;41.42;;;8.73;;
42682;SDS011;28293;50.930;3.464;2023-11-19T06:50:44;40.58;;;7.85;;
42682;SDS011;28293;50.930;3.464;2023-11-19T06:53:10;52.30;;;10.38;;
42682;SDS011;28293;50.930;3.464;2023-11-19T06:55:36;45.65;;;9.38;;
42682;SDS011;28293;50.930;3.464;2023-11-19T06:58:02;47.42;;;9.07;;
42682;SDS011;28293;50.930;3.464;2023-11-19T07:00:28;42.78;;;7.57;;
42682;SDS011;28293;50.930;3.464;2023-11-19T07:02:54;37.22;;;8.88;;
42682;SDS011;28293;50.930;3.464;2023-11-19T07:05:20;43.13;;;7.70;;
42682;SDS011;28293;50.930;3.464;2023-11-19T07:07:46;34.67;;;7.85;;
42682;SDS011;28293;50.930;3.464;2023-11-19T07:10:11;49.67;;;9.32;;
42682;SDS011;28293;50.930;3.464;2023-11-19T07:12:37;44.95;;;9.85;;
42682;SDS011;28293;50.930;3.464;2023-11-19T07:15:03;35.63;;;7.75;;
42682;SDS011;28293;50.930;3.464;2023-11-19T07:17:30;38.28;;;7.53;;
42682;SDS011;28293;50.930;3.464;2023-11-19T07:19:56;43.67;;;8.73;;
42682;SDS011;28293;50.930;3.464;2023-11-19T07:22:24;38.65;;;7.53;;
42682;SDS011;28293;50.930;3.464;2023-11-19T07:24:50;49.50;;;8.23;;
42682;SDS011;28293;50.930;3.464;2023-11-19T07:27:16;50.22;;;9.38;;
42682;SDS011;28293;50.930;3.464;2023-11-19T07:29:43;49.05;;;8.55;;
42682;SDS011;28293;50.930;3.464;2023-11-19T07:32:09;42.47;;;8.52;;
42682;SDS011;28293;50.930;3.464;2023-11-19T07:34:36;43.05;;;8.18;;
42682;SDS011;28293;50.930;3.464;2023-11-19T07:37:01;48.83;;;8.82;;
42682;SDS011;28293;50.930;3.464;2023-11-19T07:39:30;41.95;;;8.23;;
42682;SDS011;28293;50.930;3.464;2023-11-19T07:41:56;45.10;;;8.85;;
42682;SDS011;28293;50.930;3.464;2023-11-19T07:44:21;38.72;;;8.60;;
42682;SDS011;28293;50.930;3.464;2023-11-19T07:46:47;47.45;;;8.60;;
42682;SDS011;28293;50.930;3.464;2023-11-19T07:49:13;38.88;;;8.02;;
42682;SDS011;28293;50.930;3.464;2023-11-19T07:51:39;29.75;;;6.43;;
42682;SDS011;28293;50.930;3.464;2023-11-19T07:54:05;40.97;;;7.88;;
42682;SDS011;28293;50.930;3.464;2023-11-19T07:56:34;44.13;;;9.07;;
42682;SDS011;28293;50.930;3.464;2023-11-19T07:59:00;44.70;;;8.32;;
42682;SDS011;28293;50.930;3.464;2023-11-19T08:01:29;50.28;;;8.98;;
42682;SDS011;28293;50.930;3.464;2023-11-19T08:03:54;45.22;;;7.97;;
42682;SDS011;28293;50.930;3.464;2023-11-19T08:06:20;51.78;;;7.97;;
42682;SDS011;28293;50.930;3.464;2023-11-19T08:08:46;42.25;;;8.40;;
42682;SDS011;28293;50.930;3.464;2023-11-19T08:11:13;39.13;;;7.07;;
42682;SDS011;28293;50.930;3.464;2023-11-19T08:13:39;48.08;;;7.78;;
42682;SDS011;28293;50.930;3.464;2023-11-19T08:16:04;33.78;;;8.40;;
42682;SDS011;28293;50.930;3.464;2023-11-19T08:18:31;42.17;;;8.38;;
42682;SDS011;28293;50.930;3.464;2023-11-19T08:20:56;38.03;;;7.43;;
42682;SDS011;28293;50.930;3.464;2023-11-19T08:23:24;38.65;;;8.75;;
42682;SDS011;28293;50.930;3.464;2023-11-19T08:25:50;44.72;;;9.43;;
42682;SDS011;28293;50.930;3.464;2023-11-19T08:28:16;37.88;;;7.70;;
42682;SDS011;28293;50.930;3.464;2023-11-19T08:30:41;39.35;;;7.55;;
42682;SDS011;28293;50.930;3.464;2023-11-19T08:33:09;39.53;;;7.28;;
42682;SDS011;28293;50.930;3.464;2023-11-19T08:35:34;44.63;;;9.18;;
42682;SDS011;28293;50.930;3.464;2023-11-19T08:38:00;36.72;;;8.15;;
42682;SDS011;28293;50.930;3.464;2023-11-19T08:40:26;36.47;;;7.68;;
42682;SDS011;28293;50.930;3.464;2023-11-19T08:42:52;41.00;;;9.15;;
42682;SDS011;28293;50.930;3.464;2023-11-19T08:45:18;39.95;;;9.23;;
42682;SDS011;28293;50.930;3.464;2023-11-19T08:47:44;36.15;;;8.68;;
42682;SDS011;28293;50.930;3.464;2023-11-19T08:50:10;37.17;;;8.02;;
42682;SDS011;28293;50.930;3.464;2023-11-19T08:52:36;44.80;;;10.32;;
42682;SDS011;28293;50.930;3.464;2023-11-19T08:55:02;42.17;;;7.78;;
42682;SDS011;28293;50.930;3.464;2023-11-19T08:57:30;36.92;;;6.95;;
42682;SDS011;28293;50.930;3.464;2023-11-19T08:59:56;34.63;;;7.25;;
42682;SDS011;28293;50.930;3.464;2023-11-19T09:02:21;36.35;;;8.07;;
42682;SDS011;28293;50.930;3.464;2023-11-19T09:04:47;35.03;;;8.02;;
42682;SDS011;28293;50.930;3.464;2023-11-19T09:07:13;32.22;;;7.45;;
42682;SDS011;28293;50.930;3.464;2023-11-19T09:09:38;32.75;;;8.07;;
42682;SDS011;28293;50.930;3.464;2023-11-19T09:12:04;38.15;;;7.93;;
42682;SDS011;28293;50.930;3.464;2023-11-19T09:14:30;32.30;;;9.27;;
42682;SDS011;28293;50.930;3.464;2023-11-19T09:16:56;35.45;;;9.15;;
42682;SDS011;28293;50.930;3.464;2023-11-19T09:19:22;29.95;;;7.28;;
42682;SDS011;28293;50.930;3.464;2023-11-19T09:21:47;31.48;;;7.13;;
42682;SDS011;28293;50.930;3.464;2023-11-19T09:24:14;33.00;;;7.68;;
42682;SDS011;28293;50.930;3.464;2023-11-19T09:26:40;33.60;;;9.75;;
42682;SDS011;28293;50.930;3.464;2023-11-19T09:29:07;36.70;;;13.85;;
42682;SDS011;28293;50.930;3.464;2023-11-19T09:31:33;43.55;;;16.40;;
42682;SDS011;28293;50.930;3.464;2023-11-19T09:33:59;37.38;;;9.32;;
42682;SDS011;28293;50.930;3.464;2023-11-19T09:36:25;32.75;;;6.95;;
42682;SDS011;28293;50.930;3.464;2023-11-19T09:38:51;29.08;;;7.10;;
42682;SDS011;28293;50.930;3.464;2023-11-19T09:41:16;32.63;;;7.75;;
42682;SDS011;28293;50.930;3.464;2023-11-19T09:43:44;44.50;;;14.07;;
42682;SDS011;28293;50.930;3.464;2023-11-19T09:46:11;32.65;;;12.65;;
42682;SDS011;28293;50.930;3.464;2023-11-19T09:48:40;40.97;;;15.45;;
42682;SDS011;28293;50.930;3.464;2023-11-19T09:51:07;40.83;;;15.93;;
42682;SDS011;28293;50.930;3.464;2023-11-19T09:53:36;35.53;;;9.20;;
42682;SDS011;28293;50.930;3.464;2023-11-19T09:56:03;30.38;;;8.88;;
42682;SDS011;28293;50.930;3.464;2023-11-19T09:58:30;34.72;;;10.10;;
42682;SDS011;28293;50.930;3.464;2023-11-19T10:00:59;29.65;;;7.30;;
42682;SDS011;28293;50.930;3.464;2023-11-19T10:03:43;32.25;;;7.28;;
42682;SDS011;28293;50.930;3.464;2023-11-19T10:06:12;33.70;;;6.88;;
42682;SDS011;28293;50.930;3.464;2023-11-19T10:08:40;36.17;;;6.78;;
42682;SDS011;28293;50.930;3.464;2023-11-19T10:11:07;38.05;;;6.68;;
42682;SDS011;28293;50.930;3.464;2023-11-19T10:13:35;31.38;;;6.82;;
42682;SDS011;28293;50.930;3.464;2023-11-19T10:16:06;34.70;;;7.25;;
42682;SDS011;28293;50.930;3.464;2023-11-19T10:18:33;29.40;;;6.22;;
42682;SDS011;28293;50.930;3.464;2023-11-19T10:21:03;29.58;;;7.25;;
42682;SDS011;28293;50.930;3.464;2023-11-19T10:23:47;41.55;;;9.30;;
42682;SDS011;28293;50.930;3.464;2023-11-19T10:28:43;30.60;;;7.90;;
42682;SDS011;28293;50.930;3.464;2023-11-19T10:31:11;33.97;;;7.22;;
42682;SDS011;28293;50.930;3.464;2023-11-19T10:33:41;38.35;;;7.72;;
42682;SDS011;28293;50.930;3.464;2023-11-19T10:36:08;36.70;;;7.57;;
42682;SDS011;28293;50.930;3.464;2023-11-19T10:38:34;26.80;;;6.38;;
42682;SDS011;28293;50.930;3.464;2023-11-19T10:41:00;34.75;;;8.35;;
42682;SDS011;28293;50.930;3.464;2023-11-19T10:43:26;28.20;;;6.40;;
42682;SDS011;28293;50.930;3.464;2023-11-19T10:45:52;35.92;;;7.13;;
42682;SDS011;28293;50.930;3.464;2023-11-19T10:48:18;33.33;;;7.97;;
42682;SDS011;28293;50.930;3.464;2023-11-19T10:50:46;29.42;;;6.80;;
42682;SDS011;28293;50.930;3.464;2023-11-19T10:53:14;45.13;;;16.40;;
42682;SDS011;28293;50.930;3.464;2023-11-19T10:55:40;31.70;;;8.10;;
42682;SDS011;28293;50.930;3.464;2023-11-19T10:58:07;28.02;;;8.90;;
42682;SDS011;28293;50.930;3.464;2023-11-19T11:03:19;36.33;;;8.77;;
42682;SDS011;28293;50.930;3.464;2023-11-19T11:05:49;33.97;;;6.60;;
42682;SDS011;28293;50.930;3.464;2023-11-19T11:08:16;31.55;;;7.00;;
42682;SDS011;28293;50.930;3.464;2023-11-19T11:10:43;36.80;;;7.35;;
42682;SDS011;28293;50.930;3.464;2023-11-19T11:13:20;33.40;;;6.47;;
42682;SDS011;28293;50.930;3.464;2023-11-19T11:15:48;32.83;;;7.20;;
42682;SDS011;28293;50.930;3.464;2023-11-19T11:18:15;31.35;;;7.25;;
42682;SDS011;28293;50.930;3.464;2023-11-19T11:20:44;29.55;;;6.55;;
42682;SDS011;28293;50.930;3.464;2023-11-19T11:37:03;25.27;;;6.35;;
42682;SDS011;28293;50.930;3.464;2023-11-19T11:39:52;35.28;;;7.30;;
42682;SDS011;28293;50.930;3.464;2023-11-19T11:45:00;35.85;;;7.43;;
42682;SDS011;28293;50.930;3.464;2023-11-19T11:47:50;33.70;;;6.95;;
42682;SDS011;28293;50.930;3.464;2023-11-19T11:50:52;30.70;;;6.78;;
42682;SDS011;28293;50.930;3.464;2023-11-19T11:53:19;29.35;;;6.20;;
42682;SDS011;28293;50.930;3.464;2023-11-19T11:58:15;26.75;;;5.53;;
42682;SDS011;28293;50.930;3.464;2023-11-19T12:00:46;23.48;;;6.00;;
42682;SDS011;28293;50.930;3.464;2023-11-19T12:03:13;22.13;;;5.15;;
42682;SDS011;28293;50.930;3.464;2023-11-19T12:05:42;28.05;;;6.50;;
42682;SDS011;28293;50.930;3.464;2023-11-19T12:08:10;28.73;;;6.57;;
42682;SDS011;28293;50.930;3.464;2023-11-19T12:10:47;22.60;;;7.25;;
42682;SDS011;28293;50.930;3.464;2023-11-19T12:13:13;23.55;;;6.43;;
42682;SDS011;28293;50.930;3.464;2023-11-19T12:18:30;29.80;;;6.38;;
42682;SDS011;28293;50.930;3.464;2023-11-19T12:20:57;29.98;;;6.10;;
42682;SDS011;28293;50.930;3.464;2023-11-19T12:23:26;30.77;;;6.88;;
42682;SDS011;28293;50.930;3.464;2023-11-19T12:25:54;26.38;;;6.18;;
42682;SDS011;28293;50.930;3.464;2023-11-19T12:28:20;31.95;;;7.82;;
42682;SDS011;28293;50.930;3.464;2023-11-19T12:30:46;29.13;;;6.25;;
42682;SDS011;28293;50.930;3.464;2023-11-19T12:33:13;30.73;;;7.18;;
42682;SDS011;28293;50.930;3.464;2023-11-19T12:35:40;25.88;;;6.32;;
42682;SDS011;28293;50.930;3.464;2023-11-19T12:38:07;35.53;;;7.25;;
42682;SDS011;28293;50.930;3.464;2023-11-19T12:40:33;26.33;;;6.20;;
42682;SDS011;28293;50.930;3.464;2023-11-19T12:42:58;26.60;;;5.63;;
42682;SDS011;28293;50.930;3.464;2023-11-19T12:45:27;30.05;;;6.63;;
42682;SDS011;28293;50.930;3.464;2023-11-19T12:48:08;27.88;;;7.32;;
42682;SDS011;28293;50.930;3.464;2023-11-19T12:50:49;27.15;;;7.22;;
42682;SDS011;28293;50.930;3.464;2023-11-19T12:53:15;34.13;;;7.55;;
42682;SDS011;28293;50.930;3.464;2023-11-19T12:55:41;28.38;;;6.80;;
42682;SDS011;28293;50.930;3.464;2023-11-19T12:58:06;29.58;;;6.88;;
42682;SDS011;28293;50.930;3.464;2023-11-19T13:00:32;33.22;;;6.35;;
42682;SDS011;28293;50.930;3.464;2023-11-19T13:02:57;31.70;;;6.35;;
42682;SDS011;28293;50.930;3.464;2023-11-19T13:10:32;31.65;;;6.60;;
42682;SDS011;28293;50.930;3.464;2023-11-19T13:15:29;33.08;;;6.85;;
42682;SDS011;28293;50.930;3.464;2023-11-19T13:17:55;28.55;;;6.93;;
42682;SDS011;28293;50.930;3.464;2023-11-19T13:20:20;29.30;;;6.68;;
42682;SDS011;28293;50.930;3.464;2023-11-19T13:22:55;31.35;;;6.60;;
42682;SDS011;28293;50.930;3.464;2023-11-19T13:25:27;31.40;;;6.72;;
42682;SDS011;28293;50.930;3.464;2023-11-19T13:27:56;34.10;;;7.97;;
42682;SDS011;28293;50.930;3.464;2023-11-19T13:30:22;30.05;;;7.10;;
42682;SDS011;28293;50.930;3.464;2023-11-19T13:32:49;30.10;;;6.80;;
42682;SDS011;28293;50.930;3.464;2023-11-19T13:35:15;33.30;;;7.15;;
42682;SDS011;28293;50.930;3.464;2023-11-19T13:37:42;33.47;;;6.18;;
42682;SDS011;28293;50.930;3.464;2023-11-19T13:40:09;33.03;;;6.28;;
42682;SDS011;28293;50.930;3.464;2023-11-19T13:42:38;29.20;;;6.65;;
42682;SDS011;28293;50.930;3.464;2023-11-19T13:45:10;28.35;;;7.15;;
42682;SDS011;28293;50.930;3.464;2023-11-19T13:47:41;30.90;;;7.47;;
42682;SDS011;28293;50.930;3.464;2023-11-19T13:50:09;25.23;;;7.28;;
42682;SDS011;28293;50.930;3.464;2023-11-19T13:52:39;34.03;;;7.28;;
42682;SDS011;28293;50.930;3.464;2023-11-19T13:55:06;29.50;;;6.50;;
42682;SDS011;28293;50.930;3.464;2023-11-19T13:57:36;28.38;;;6.65;;
42682;SDS011;28293;50.930;3.464;2023-11-19T14:00:03;32.83;;;7.63;;
42682;SDS011;28293;50.930;3.464;2023-11-19T14:02:38;24.85;;;6.22;;
42682;SDS011;28293;50.930;3.464;2023-11-19T14:05:05;30.48;;;7.63;;
42682;SDS011;28293;50.930;3.464;2023-11-19T14:07:32;33.05;;;6.97;;
42682;SDS011;28293;50.930;3.464;2023-11-19T14:09:58;28.33;;;7.18;;
42682;SDS011;28293;50.930;3.464;2023-11-19T14:12:23;29.65;;;6.82;;
42682;SDS011;28293;50.930;3.464;2023-11-19T14:14:49;30.27;;;6.85;;
42682;SDS011;28293;50.930;3.464;2023-11-19T14:17:15;30.02;;;6.20;;
42682;SDS011;28293;50.930;3.464;2023-11-19T14:19:41;29.77;;;6.07;;
42682;SDS011;28293;50.930;3.464;2023-11-19T14:22:08;36.97;;;8.48;;
42682;SDS011;28293;50.930;3.464;2023-11-19T14:24:34;31.38;;;6.25;;
42682;SDS011;28293;50.930;3.464;2023-11-19T14:27:00;25.35;;;6.22;;
42682;SDS011;28293;50.930;3.464;2023-11-19T14:29:26;33.25;;;6.43;;
42682;SDS011;28293;50.930;3.464;2023-11-19T14:31:54;32.53;;;7.75;;
42682;SDS011;28293;50.930;3.464;2023-11-19T14:34:20;30.15;;;6.75;;
42682;SDS011;28293;50.930;3.464;2023-11-19T14:36:46;27.08;;;6.65;;
42682;SDS011;28293;50.930;3.464;2023-11-19T14:39:12;25.50;;;6.00;;
42682;SDS011;28293;50.930;3.464;2023-11-19T14:41:38;32.92;;;7.38;;
42682;SDS011;28293;50.930;3.464;2023-11-19T14:44:04;29.50;;;6.88;;
42682;SDS011;28293;50.930;3.464;2023-11-19T14:46:30;32.90;;;7.38;;
42682;SDS011;28293;50.930;3.464;2023-11-19T14:48:56;36.33;;;8.18;;
42682;SDS011;28293;50.930;3.464;2023-11-19T14:51:22;32.80;;;8.60;;
42682;SDS011;28293;50.930;3.464;2023-11-19T14:53:48;33.85;;;7.40;;
42682;SDS011;28293;50.930;3.464;2023-11-19T14:56:14;32.15;;;6.95;;
42682;SDS011;28293;50.930;3.464;2023-11-19T14:58:40;23.58;;;6.45;;
42682;SDS011;28293;50.930;3.464;2023-11-19T15:01:06;28.23;;;6.55;;
42682;SDS011;28293;50.930;3.464;2023-11-19T15:03:32;28.90;;;6.18;;
42682;SDS011;28293;50.930;3.464;2023-11-19T15:05:58;31.20;;;6.78;;
42682;SDS011;28293;50.930;3.464;2023-11-19T15:08:24;29.85;;;7.68;;
42682;SDS011;28293;50.930;3.464;2023-11-19T15:10:50;27.65;;;6.68;;